createdAt,value
2018-06-18T00:00:12.970Z,16.40
2018-06-18T00:02:42.036Z,16.30
2018-06-18T00:05:10.399Z,16.30
2018-06-18T00:07:38.771Z,16.40
2018-06-18T00:10:08.305Z,16.50
2018-06-18T00:12:37.392Z,16.60
2018-06-18T00:15:05.767Z,16.70
2018-06-18T00:17:34.799Z,16.70
2018-06-18T00:20:03.182Z,16.80
2018-06-18T00:22:31.651Z,16.60
2018-06-18T00:25:00.601Z,16.70
2018-06-18T00:27:29.752Z,16.70
2018-06-18T00:29:58.363Z,16.70
2018-06-18T00:32:26.900Z,16.60
2018-06-18T00:34:55.280Z,16.50
2018-06-18T00:37:23.697Z,16.40
2018-06-18T00:39:52.162Z,16.50
2018-06-18T00:42:21.047Z,16.60
2018-06-18T00:44:49.993Z,16.60
2018-06-18T00:47:18.387Z,16.60
2018-06-18T00:49:47.333Z,16.50
2018-06-18T00:52:15.851Z,16.60
2018-06-18T00:54:44.251Z,16.60
2018-06-18T00:57:12.612Z,16.50
2018-06-18T00:59:40.979Z,16.50
2018-06-18T01:02:09.554Z,16.50
2018-06-18T01:04:37.960Z,16.50
2018-06-18T01:07:06.488Z,16.60
2018-06-18T01:09:35.714Z,16.60
2018-06-18T01:12:04.344Z,16.60
2018-06-18T01:14:33.460Z,16.60
2018-06-18T01:17:01.820Z,16.60
2018-06-18T01:19:30.211Z,16.60
2018-06-18T01:21:58.769Z,16.70
2018-06-18T01:24:59.950Z,16.80
2018-06-18T01:27:28.474Z,16.80
2018-06-18T01:29:57.196Z,16.80
2018-06-18T01:32:26.650Z,16.80
2018-06-18T01:34:55.096Z,16.80
2018-06-18T01:37:23.462Z,16.60
2018-06-18T01:39:53.001Z,16.70
2018-06-18T01:42:21.901Z,16.60
2018-06-18T01:44:50.271Z,16.60
2018-06-18T01:47:18.642Z,16.70
2018-06-18T01:49:47.783Z,16.70
2018-06-18T01:52:16.158Z,16.70
2018-06-18T01:54:44.597Z,16.70
2018-06-18T01:57:12.973Z,16.80
2018-06-18T01:59:41.368Z,16.80
2018-06-18T02:02:10.153Z,16.80
2018-06-18T02:04:38.504Z,16.70
2018-06-18T02:07:06.972Z,16.70
2018-06-18T02:09:35.330Z,16.80
2018-06-18T02:12:04.264Z,16.80
2018-06-18T02:14:32.689Z,16.90
2018-06-18T02:17:01.654Z,16.80
2018-06-18T02:19:29.986Z,16.90
2018-06-18T02:21:58.304Z,16.90
2018-06-18T02:24:26.684Z,16.80
2018-06-18T02:27:00.464Z,16.70
2018-06-18T02:29:34.418Z,16.60
2018-06-18T02:32:08.282Z,16.60
2018-06-18T02:34:42.167Z,16.60
2018-06-18T02:37:15.993Z,16.60
2018-06-18T02:39:49.763Z,16.60
2018-06-18T02:42:18.434Z,16.60
2018-06-18T02:44:46.850Z,16.60
2018-06-18T02:47:16.037Z,16.60
2018-06-18T02:49:44.452Z,16.70
2018-06-18T02:52:12.872Z,16.60
2018-06-18T02:54:41.347Z,16.60
2018-06-18T02:57:10.504Z,16.60
2018-06-18T02:59:39.908Z,16.60
2018-06-18T03:02:08.290Z,16.60
2018-06-18T03:04:36.633Z,16.60
2018-06-18T03:07:04.982Z,16.60
2018-06-18T03:09:33.444Z,16.60
2018-06-18T03:12:01.834Z,16.60
2018-06-18T03:14:31.059Z,16.40
2018-06-18T03:16:59.713Z,16.40
2018-06-18T03:19:33.600Z,16.30
2018-06-18T03:22:07.874Z,16.40
2018-06-18T03:24:42.513Z,16.50
2018-06-18T03:27:16.268Z,16.50
2018-06-18T03:29:44.667Z,16.60
2018-06-18T03:32:14.177Z,16.60
2018-06-18T03:34:42.566Z,16.70
2018-06-18T03:37:12.108Z,16.70
2018-06-18T03:39:40.529Z,16.60
2018-06-18T03:42:08.955Z,16.40
2018-06-18T03:45:09.463Z,16.40
2018-06-18T03:47:38.038Z,16.40
2018-06-18T03:50:06.686Z,16.50
2018-06-18T03:52:35.016Z,16.60
2018-06-18T03:55:06.819Z,16.60
2018-06-18T03:57:35.236Z,16.60
2018-06-18T04:00:03.795Z,16.50
2018-06-18T04:02:40.212Z,16.50
2018-06-18T04:05:14.009Z,16.50
2018-06-18T04:07:47.819Z,16.50
2018-06-18T04:10:22.193Z,16.60
2018-06-18T04:12:50.624Z,16.60
2018-06-18T04:15:19.064Z,16.70
2018-06-18T04:17:47.456Z,16.70
2018-06-18T04:20:15.887Z,16.80
2018-06-18T04:22:44.397Z,16.80
2018-06-18T04:25:12.825Z,17.10
2018-06-18T04:27:41.201Z,17.00
2018-06-18T04:30:09.553Z,17.00
2018-06-18T04:32:38.085Z,17.00
2018-06-18T04:35:07.322Z,16.90
2018-06-18T04:37:36.020Z,16.90
2018-06-18T04:40:04.663Z,17.00
2018-06-18T04:42:38.975Z,17.00
2018-06-18T04:45:12.817Z,17.10
2018-06-18T04:47:47.697Z,17.10
2018-06-18T04:50:21.949Z,17.10
2018-06-18T04:52:50.435Z,17.10
2018-06-18T04:55:18.845Z,17.10
2018-06-18T04:57:48.046Z,17.10
2018-06-18T05:00:19.869Z,17.10
2018-06-18T05:02:48.284Z,17.10
2018-06-18T05:07:46.532Z,17.20
2018-06-18T05:10:22.827Z,17.20
2018-06-18T05:12:51.436Z,17.20
2018-06-18T05:15:20.795Z,17.00
2018-06-18T05:17:49.291Z,16.80
2018-06-18T05:20:18.071Z,16.80
2018-06-18T05:22:46.849Z,16.70
2018-06-18T05:25:15.351Z,16.50
2018-06-18T05:27:43.824Z,16.60
2018-06-18T05:30:13.916Z,16.80
2018-06-18T05:32:42.464Z,16.80
2018-06-18T05:35:11.937Z,17.00
2018-06-18T05:37:47.477Z,17.10
2018-06-18T05:40:16.592Z,17.20
2018-06-18T05:42:45.059Z,17.20
2018-06-18T05:45:13.740Z,17.30
2018-06-18T05:47:42.305Z,17.40
2018-06-18T05:50:11.420Z,17.50
2018-06-18T05:52:39.775Z,17.50
2018-06-18T05:55:08.213Z,17.30
2018-06-18T05:57:36.595Z,17.30
2018-06-18T06:00:05.970Z,17.50
2018-06-18T06:02:34.397Z,17.60
2018-06-18T06:05:02.807Z,17.60
2018-06-18T06:07:31.908Z,17.60
2018-06-18T06:10:00.334Z,17.80
2018-06-18T06:12:28.808Z,17.80
2018-06-18T06:14:57.607Z,17.90
2018-06-18T06:17:26.029Z,18.00
2018-06-18T06:19:54.524Z,17.90
2018-06-18T06:22:23.528Z,18.00
2018-06-18T06:24:51.870Z,18.00
2018-06-18T06:27:20.334Z,18.20
2018-06-18T06:29:49.358Z,18.20
2018-06-18T06:32:18.683Z,18.40
2018-06-18T06:34:50.184Z,18.40
2018-06-18T06:37:18.646Z,18.30
2018-06-18T06:39:47.019Z,18.30
2018-06-18T06:42:17.067Z,18.40
2018-06-18T06:44:45.475Z,18.40
2018-06-18T06:47:14.612Z,18.30
2018-06-18T06:49:43.282Z,18.30
2018-06-18T06:52:11.748Z,18.20
2018-06-18T06:54:40.118Z,18.10
2018-06-18T06:57:08.479Z,18.10
2018-06-18T06:59:37.000Z,18.20
2018-06-18T07:02:05.393Z,18.30
2018-06-18T07:04:33.742Z,17.90
2018-06-18T07:07:02.121Z,18.00
2018-06-18T07:09:30.529Z,18.30
2018-06-18T07:11:59.032Z,18.50
2018-06-18T07:14:27.461Z,18.60
2018-06-18T07:16:55.945Z,18.90
2018-06-18T07:19:24.363Z,19.10
2018-06-18T07:21:52.784Z,18.80
2018-06-18T07:24:21.148Z,19.10
2018-06-18T07:26:50.245Z,19.10
2018-06-18T07:29:18.664Z,19.10
2018-06-18T07:34:15.133Z,19.60
2018-06-18T07:36:43.731Z,19.80
2018-06-18T07:39:12.338Z,19.90
2018-06-18T07:41:40.799Z,20.10
2018-06-18T07:44:09.289Z,20.20
2018-06-18T07:46:37.697Z,20.30
2018-06-18T07:49:06.343Z,20.30
2018-06-18T07:51:34.786Z,20.30
2018-06-18T07:54:03.169Z,20.60
2018-06-18T07:56:31.513Z,20.90
2018-06-18T07:58:59.983Z,20.90
2018-06-18T08:01:28.399Z,21.20
2018-06-18T08:03:56.887Z,21.00
2018-06-18T08:06:25.680Z,20.50
2018-06-18T08:08:54.126Z,20.60
2018-06-18T08:11:22.561Z,20.80
2018-06-18T08:13:51.013Z,20.90
2018-06-18T08:16:19.384Z,19.90
2018-06-18T08:18:47.838Z,19.80
2018-06-18T08:21:16.458Z,20.30
2018-06-18T08:23:45.026Z,20.40
2018-06-18T08:26:14.122Z,20.90
2018-06-18T08:28:42.627Z,21.00
2018-06-18T08:31:11.769Z,21.10
2018-06-18T08:33:40.175Z,21.40
2018-06-18T08:36:08.636Z,21.50
2018-06-18T08:38:37.153Z,21.70
2018-06-18T08:41:06.129Z,21.50
2018-06-18T08:43:35.196Z,21.00
2018-06-18T08:46:03.589Z,20.80
2018-06-18T08:48:37.276Z,21.10
2018-06-18T08:51:11.144Z,21.20
2018-06-18T08:53:45.072Z,21.00
2018-06-18T08:56:18.869Z,20.90
2018-06-18T08:58:52.743Z,20.70
2018-06-18T09:01:25.777Z,20.60
2018-06-18T09:04:00.106Z,20.30
2018-06-18T09:06:28.657Z,20.10
2018-06-18T09:08:58.169Z,20.00
2018-06-18T09:18:14.487Z,20.70
2018-06-18T09:20:42.956Z,21.40
2018-06-18T09:23:11.585Z,21.40
2018-06-18T09:25:45.412Z,21.40
2018-06-18T09:28:13.854Z,21.40
2018-06-18T09:30:43.333Z,21.50
2018-06-18T09:33:11.829Z,21.50
2018-06-18T09:35:40.266Z,21.50
2018-06-18T09:38:08.929Z,21.50
2018-06-18T09:40:37.387Z,21.60
2018-06-18T09:43:05.771Z,21.40
2018-06-18T09:45:34.221Z,21.50
2018-06-18T09:48:02.704Z,21.40
2018-06-18T09:50:36.437Z,21.50
2018-06-18T09:53:10.218Z,21.40
2018-06-18T09:55:45.078Z,21.60
2018-06-18T09:58:18.747Z,21.60
2018-06-18T10:00:52.817Z,21.60
2018-06-18T10:03:21.704Z,22.00
2018-06-18T10:05:50.899Z,21.90
2018-06-18T10:08:20.088Z,21.90
2018-06-18T10:10:48.515Z,21.70
2018-06-18T10:13:17.776Z,21.70
2018-06-18T10:15:46.208Z,21.60
2018-06-18T10:18:14.563Z,21.90
2018-06-18T10:20:43.076Z,21.50
2018-06-18T10:23:11.560Z,21.40
2018-06-18T10:25:39.977Z,21.50
2018-06-18T10:28:08.453Z,21.40
2018-06-18T10:30:37.485Z,20.80
2018-06-18T10:33:11.180Z,20.60
2018-06-18T10:35:44.983Z,20.70
2018-06-18T10:38:18.689Z,20.80
2018-06-18T10:40:52.413Z,20.90
2018-06-18T10:43:24.927Z,21.20
2018-06-18T10:45:53.357Z,21.60
2018-06-18T10:48:22.212Z,22.00
2018-06-18T10:50:50.702Z,22.40
2018-06-18T10:53:19.094Z,22.60
2018-06-18T10:55:47.496Z,22.70
2018-06-18T10:58:16.869Z,22.90
2018-06-18T11:00:46.693Z,23.00
2018-06-18T11:03:15.141Z,22.70
2018-06-18T11:05:48.955Z,22.90
2018-06-18T11:08:17.502Z,22.60
2018-06-18T11:10:46.059Z,21.90
2018-06-18T11:13:14.762Z,21.80
2018-06-18T11:15:43.906Z,21.40
2018-06-18T11:18:17.593Z,21.50
2018-06-18T11:20:51.530Z,21.70
2018-06-18T11:23:25.346Z,22.00
2018-06-18T11:25:59.195Z,22.20
2018-06-18T11:28:27.701Z,22.20
2018-06-18T11:30:56.216Z,22.00
2018-06-18T11:33:26.292Z,22.20
2018-06-18T11:35:55.622Z,22.20
2018-06-18T11:38:24.060Z,22.30
2018-06-18T11:40:53.378Z,22.20
2018-06-18T11:43:21.979Z,22.10
2018-06-18T11:45:51.841Z,22.00
2018-06-18T11:48:21.472Z,22.10
2018-06-18T11:50:51.021Z,22.10
2018-06-18T11:53:20.852Z,22.10
2018-06-18T11:55:49.479Z,22.10
2018-06-18T11:58:24.529Z,22.20
2018-06-18T12:00:58.488Z,22.50
2018-06-18T12:03:32.485Z,22.50
2018-06-18T12:06:06.201Z,22.40
2018-06-18T12:08:40.033Z,22.60
2018-06-18T12:11:09.072Z,22.60
2018-06-18T12:13:38.123Z,22.60
2018-06-18T12:16:06.682Z,22.60
2018-06-18T12:18:35.266Z,22.60
2018-06-18T12:21:03.918Z,22.60
2018-06-18T12:23:32.923Z,22.20
2018-06-18T12:26:01.564Z,22.00
2018-06-18T12:28:30.618Z,21.80
2018-06-18T12:30:59.144Z,21.90
2018-06-18T12:33:28.246Z,22.10
2018-06-18T12:35:57.855Z,22.40
2018-06-18T12:38:26.232Z,22.50
2018-06-18T12:40:54.642Z,22.40
2018-06-18T12:43:25.139Z,22.30
2018-06-18T12:45:59.652Z,22.40
2018-06-18T12:48:34.381Z,22.40
2018-06-18T12:51:08.933Z,22.30
2018-06-18T12:53:43.590Z,22.40
2018-06-18T12:56:18.237Z,22.50
2018-06-18T12:58:47.562Z,22.60
2018-06-18T13:01:19.588Z,22.70
2018-06-18T13:03:49.713Z,22.80
2018-06-18T13:06:20.486Z,22.80
2018-06-18T13:08:50.691Z,22.70
2018-06-18T13:11:20.238Z,22.80
2018-06-18T13:13:49.921Z,22.60
2018-06-18T13:18:48.227Z,22.20
2018-06-18T13:21:18.191Z,22.10
2018-06-18T13:23:46.717Z,22.00
2018-06-18T13:26:16.818Z,22.10
2018-06-18T13:28:46.168Z,22.00
2018-06-18T13:31:15.807Z,22.10
2018-06-18T13:33:45.124Z,22.20
2018-06-18T13:36:15.691Z,22.30
2018-06-18T13:38:50.376Z,22.50
2018-06-18T13:41:25.104Z,22.70
2018-06-18T13:44:01.065Z,22.90
2018-06-18T13:46:36.294Z,22.90
2018-06-18T13:49:05.823Z,23.10
2018-06-18T13:51:35.410Z,22.80
2018-06-18T13:54:04.826Z,22.80
2018-06-18T13:56:34.527Z,22.60
2018-06-18T13:59:03.062Z,22.40
2018-06-18T14:01:31.872Z,22.50
2018-06-18T14:04:01.128Z,22.60
2018-06-18T14:06:29.668Z,22.30
2018-06-18T14:11:26.880Z,22.00
2018-06-18T14:13:56.991Z,22.20
2018-06-18T14:16:26.029Z,22.30
2018-06-18T14:18:54.628Z,22.40
2018-06-18T14:21:23.051Z,22.30
2018-06-18T14:23:51.536Z,22.30
2018-06-18T14:26:20.053Z,22.20
2018-06-18T14:28:56.523Z,22.20
2018-06-18T14:31:30.808Z,22.20
2018-06-18T14:34:05.367Z,22.20
2018-06-18T14:36:39.379Z,22.30
2018-06-18T14:39:13.927Z,22.30
2018-06-18T14:41:43.816Z,22.10
2018-06-18T14:44:12.503Z,21.80
2018-06-18T14:46:40.963Z,21.80
2018-06-18T14:49:09.434Z,21.40
2018-06-18T14:51:39.332Z,21.20
2018-06-18T14:54:07.931Z,21.40
2018-06-18T14:56:37.244Z,21.80
2018-06-18T14:59:09.425Z,22.00
2018-06-18T15:01:37.926Z,22.10
2018-06-18T15:04:06.693Z,22.10
2018-06-18T15:06:36.434Z,22.30
2018-06-18T15:09:09.238Z,22.30
2018-06-18T15:14:05.793Z,21.70
2018-06-18T15:16:34.344Z,21.70
2018-06-18T15:19:02.862Z,21.50
2018-06-18T15:21:35.839Z,21.30
2018-06-18T15:24:06.211Z,21.50
2018-06-18T15:26:35.721Z,21.60
2018-06-18T15:29:04.133Z,21.60
2018-06-18T15:31:32.618Z,21.60
2018-06-18T15:34:01.099Z,21.60
2018-06-18T15:36:30.238Z,21.50
2018-06-18T15:38:59.601Z,21.60
2018-06-18T15:41:28.011Z,21.50
2018-06-18T15:43:56.653Z,21.70
2018-06-18T15:46:25.503Z,21.80
2018-06-18T15:48:53.959Z,21.70
2018-06-18T15:51:22.397Z,21.60
2018-06-18T15:53:50.832Z,21.60
2018-06-18T15:56:20.403Z,21.70
2018-06-18T15:58:50.566Z,21.90
2018-06-18T16:01:19.192Z,21.90
2018-06-18T16:03:47.749Z,22.10
2018-06-18T16:06:17.119Z,22.00
2018-06-18T16:08:45.560Z,22.10
2018-06-18T16:11:14.770Z,22.20
2018-06-18T16:13:43.605Z,22.30
2018-06-18T16:16:12.021Z,22.00
2018-06-18T16:18:40.722Z,22.00
2018-06-18T16:21:11.034Z,22.00
2018-06-18T16:23:40.407Z,21.90
2018-06-18T16:26:08.887Z,21.90
2018-06-18T16:28:37.306Z,21.90
2018-06-18T16:31:06.023Z,21.70
2018-06-18T16:33:35.176Z,21.60
2018-06-18T16:36:03.665Z,21.70
2018-06-18T16:38:32.089Z,21.70
2018-06-18T16:41:00.520Z,21.60
2018-06-18T16:43:29.906Z,21.60
2018-06-18T16:45:58.509Z,21.70
2018-06-18T16:48:27.114Z,21.80
2018-06-18T16:50:55.992Z,21.90
2018-06-18T16:53:24.532Z,21.60
2018-06-18T16:55:54.023Z,21.60
2018-06-18T16:58:22.695Z,21.70
2018-06-18T17:00:52.175Z,21.50
2018-06-18T17:03:20.667Z,21.20
2018-06-18T17:05:49.707Z,21.10
2018-06-18T17:08:18.359Z,21.30
2018-06-18T17:10:47.019Z,21.50
2018-06-18T17:13:15.629Z,21.70
2018-06-18T17:15:44.766Z,21.90
2018-06-18T17:18:13.444Z,22.00
2018-06-18T17:20:42.035Z,22.10
2018-06-18T17:23:10.522Z,22.10
2018-06-18T17:25:39.606Z,22.10
2018-06-18T17:28:09.371Z,22.30
2018-06-18T17:30:37.903Z,22.30
2018-06-18T17:33:07.129Z,22.30
2018-06-18T17:35:35.774Z,22.20
2018-06-18T17:38:04.882Z,22.10
2018-06-18T17:40:34.228Z,22.10
2018-06-18T17:43:03.311Z,21.90
2018-06-18T17:45:32.621Z,21.80
2018-06-18T17:48:01.805Z,21.80
2018-06-18T17:50:30.308Z,21.80
2018-06-18T17:52:59.182Z,21.70
2018-06-18T17:55:27.921Z,21.50
2018-06-18T17:57:56.543Z,21.50
2018-06-18T18:00:25.525Z,21.50
2018-06-18T18:02:56.136Z,21.40
2018-06-18T18:05:24.881Z,21.50
2018-06-18T18:07:54.408Z,21.80
2018-06-18T18:10:22.928Z,21.90
2018-06-18T18:12:54.821Z,22.00
2018-06-18T18:15:23.595Z,22.20
2018-06-18T18:17:53.533Z,22.20
2018-06-18T18:20:22.158Z,22.10
2018-06-18T18:22:50.655Z,22.00
2018-06-18T18:25:20.021Z,21.90
2018-06-18T18:27:48.836Z,21.90
2018-06-18T18:30:17.476Z,22.00
2018-06-18T18:32:45.972Z,22.00
2018-06-18T18:35:15.165Z,22.10
2018-06-18T18:37:45.384Z,21.90
2018-06-18T18:40:14.111Z,21.80
2018-06-18T18:42:43.430Z,21.60
2018-06-18T18:45:12.878Z,21.50
2018-06-18T18:47:41.417Z,21.50
2018-06-18T18:50:10.217Z,21.50
2018-06-18T18:52:38.759Z,21.40
2018-06-18T18:55:39.918Z,21.30
2018-06-18T18:58:21.568Z,21.20
2018-06-18T19:00:51.650Z,21.30
2018-06-18T19:03:22.029Z,21.30
2018-06-18T19:05:51.004Z,21.20
2018-06-18T19:08:20.726Z,21.20
2018-06-18T19:10:49.244Z,21.10
2018-06-18T19:13:20.182Z,21.00
2018-06-18T19:15:51.428Z,20.90
2018-06-18T19:18:20.540Z,20.90
2018-06-18T19:20:55.139Z,20.80
2018-06-18T19:25:54.436Z,20.80
2018-06-18T19:28:24.080Z,20.70
2018-06-18T19:30:57.247Z,20.60
2018-06-18T19:33:27.494Z,20.50
2018-06-18T19:35:57.365Z,20.50
2018-06-18T19:38:26.945Z,20.60
2018-06-18T19:40:55.491Z,20.60
2018-06-18T19:43:24.383Z,20.60
2018-06-18T19:45:54.408Z,20.60
2018-06-18T19:48:24.985Z,20.50
2018-06-18T19:50:53.756Z,20.50
2018-06-18T19:53:22.199Z,20.40
2018-06-18T19:55:50.669Z,20.50
2018-06-18T19:58:19.116Z,20.40
2018-06-18T20:00:49.991Z,20.40
2018-06-18T20:03:19.498Z,20.40
2018-06-18T20:05:48.719Z,20.50
2018-06-18T20:08:18.518Z,20.40
2018-06-18T20:10:47.604Z,20.40
2018-06-18T20:13:16.204Z,20.40
2018-06-18T20:15:45.940Z,20.40
2018-06-18T20:18:15.060Z,20.40
2018-06-18T20:20:43.518Z,20.30
2018-06-18T20:23:13.369Z,20.30
2018-06-18T20:25:43.878Z,20.10
2018-06-18T20:28:12.668Z,20.00
2018-06-18T20:30:41.308Z,19.90
2018-06-18T20:33:10.431Z,19.70
2018-06-18T20:35:40.360Z,19.50
2018-06-18T20:38:09.426Z,19.40
2018-06-18T20:40:38.413Z,19.30
2018-06-18T20:43:07.203Z,19.20
2018-06-18T20:45:35.688Z,19.10
2018-06-18T20:48:04.894Z,19.20
2018-06-18T20:50:33.699Z,19.10
2018-06-18T20:53:03.361Z,19.00
2018-06-18T20:55:31.772Z,19.10
2018-06-18T20:58:00.313Z,19.10
2018-06-18T21:00:29.429Z,19.10
2018-06-18T21:02:58.179Z,19.10
2018-06-18T21:05:26.772Z,19.20
2018-06-18T21:07:56.452Z,19.30
2018-06-18T21:10:25.798Z,19.40
2018-06-18T21:12:54.394Z,19.40
2018-06-18T21:15:22.972Z,19.50
2018-06-18T21:17:51.766Z,19.50
2018-06-18T21:20:21.055Z,19.40
2018-06-18T21:22:49.635Z,19.40
2018-06-18T21:25:18.172Z,19.40
2018-06-18T21:27:46.856Z,19.40
2018-06-18T21:30:15.805Z,19.10
2018-06-18T21:32:45.098Z,19.00
2018-06-18T21:35:13.702Z,18.90
2018-06-18T21:37:42.281Z,18.90
2018-06-18T21:40:10.871Z,18.80
2018-06-18T21:42:39.480Z,18.90
2018-06-18T21:45:09.672Z,18.90
2018-06-18T21:47:39.472Z,18.90
2018-06-18T21:50:08.684Z,18.90
2018-06-18T21:52:37.255Z,18.90
2018-06-18T21:55:05.814Z,19.10
2018-06-18T21:57:34.353Z,19.10
2018-06-18T22:00:02.950Z,19.20
2018-06-18T22:02:31.578Z,19.20
2018-06-18T22:05:00.304Z,19.30
2018-06-18T22:07:28.756Z,19.40
2018-06-18T22:09:57.243Z,19.40
2018-06-18T22:12:28.717Z,19.50
2018-06-18T22:14:57.442Z,19.60
2018-06-18T22:17:26.630Z,19.60
2018-06-18T22:19:55.125Z,19.50
2018-06-18T22:22:23.705Z,19.40
2018-06-18T22:24:52.284Z,19.30
2018-06-18T22:27:21.261Z,19.30
2018-06-18T22:29:50.062Z,19.40
2018-06-18T22:32:18.579Z,19.50
2018-06-18T22:34:47.865Z,19.50
2018-06-18T22:37:16.479Z,19.40
2018-06-18T22:39:45.514Z,19.30
2018-06-18T22:42:14.090Z,19.30
2018-06-18T22:44:43.328Z,19.30
2018-06-18T22:47:11.861Z,19.30
2018-06-18T22:49:41.050Z,19.30
2018-06-18T22:52:09.572Z,19.30
2018-06-18T22:54:42.488Z,19.30
2018-06-18T22:57:10.923Z,19.30
2018-06-18T22:59:39.812Z,19.30
2018-06-18T23:02:09.484Z,19.20
2018-06-18T23:04:38.539Z,19.20
2018-06-18T23:07:07.659Z,19.30
2018-06-18T23:09:36.215Z,19.30
2018-06-18T23:12:05.197Z,19.30
2018-06-18T23:14:33.791Z,19.40
2018-06-18T23:17:02.368Z,19.40
2018-06-18T23:19:30.924Z,19.50
2018-06-18T23:21:59.462Z,19.50
2018-06-18T23:24:28.062Z,19.40
2018-06-18T23:26:57.581Z,19.40
2018-06-18T23:29:26.094Z,19.50
2018-06-18T23:31:54.527Z,19.50
2018-06-18T23:34:23.126Z,19.30
2018-06-18T23:36:51.658Z,19.10
2018-06-18T23:39:20.253Z,19.20
2018-06-18T23:41:50.159Z,19.20
2018-06-18T23:44:18.648Z,19.20
2018-06-18T23:46:47.192Z,19.30
2018-06-18T23:49:15.810Z,19.30
2018-06-18T23:51:44.387Z,19.30
2018-06-18T23:54:12.904Z,19.30
2018-06-18T23:56:41.446Z,19.20
2018-06-18T23:59:10.613Z,19.20
